Metar z pełnej godziny Komunikat METAR ze strony awiacja.imgw.pl Metar G00 EPLL METAR EPLL 200200Z 08001KT CAVOK 16/14 Q1016 =